createdAt,value
2019-03-23T00:02:26.377Z,11.96
2019-03-23T00:04:57.234Z,11.81
2019-03-23T00:07:27.994Z,11.75
2019-03-23T00:09:58.841Z,11.85
2019-03-23T00:12:29.858Z,11.86
2019-03-23T00:15:00.520Z,11.76
2019-03-23T00:17:31.645Z,11.84
2019-03-23T00:20:02.650Z,11.84
2019-03-23T00:22:33.437Z,11.82
2019-03-23T00:25:04.542Z,11.71
2019-03-23T00:27:35.496Z,11.78
2019-03-23T00:30:08.951Z,11.81
2019-03-23T00:32:39.814Z,11.81
2019-03-23T00:35:11.090Z,11.83
2019-03-23T00:37:41.787Z,11.73
2019-03-23T00:40:13.021Z,11.67
2019-03-23T00:42:43.832Z,11.69
2019-03-23T00:45:14.804Z,11.62
2019-03-23T00:47:45.539Z,11.68
2019-03-23T00:50:16.453Z,11.68
2019-03-23T00:52:47.258Z,11.58
2019-03-23T00:55:18.016Z,11.61
2019-03-23T00:57:49.251Z,11.62
2019-03-23T01:00:20.108Z,11.61
2019-03-23T01:02:50.823Z,11.61
2019-03-23T01:05:21.650Z,11.37
2019-03-23T01:07:52.488Z,11.55
2019-03-23T01:10:23.155Z,11.53
2019-03-23T01:12:53.904Z,11.57
2019-03-23T01:15:24.609Z,11.64
2019-03-23T01:17:55.424Z,11.34
2019-03-23T01:20:26.638Z,11.39
2019-03-23T01:22:57.437Z,11.52
2019-03-23T01:25:28.312Z,11.46
2019-03-23T01:27:59.528Z,11.45
2019-03-23T01:30:30.237Z,11.52
2019-03-23T01:33:00.935Z,11.48
2019-03-23T01:35:31.675Z,11.49
2019-03-23T01:38:02.797Z,11.59
2019-03-23T01:40:33.505Z,11.57
2019-03-23T01:43:04.612Z,11.45
2019-03-23T01:45:35.420Z,11.53
2019-03-23T01:48:06.860Z,11.47
2019-03-23T01:50:38.082Z,11.46
2019-03-23T01:53:09.638Z,11.41
2019-03-23T01:55:40.552Z,11.41
2019-03-23T01:58:11.869Z,11.42
2019-03-23T02:00:42.529Z,11.29
2019-03-23T02:03:13.227Z,11.43
2019-03-23T02:05:44.383Z,11.32
2019-03-23T02:08:15.119Z,11.35
2019-03-23T02:10:46.074Z,11.32
2019-03-23T02:13:16.744Z,11.28
2019-03-23T02:15:47.672Z,11.31
2019-03-23T02:18:18.382Z,11.23
2019-03-23T02:20:49.327Z,11.36
2019-03-23T02:23:20.016Z,11.25
2019-03-23T02:25:50.683Z,11.33
2019-03-23T02:28:21.431Z,11.19
2019-03-23T02:30:52.535Z,11.25
2019-03-23T02:33:23.233Z,11.20
2019-03-23T02:35:53.915Z,11.26
2019-03-23T02:38:24.677Z,11.26
2019-03-23T02:40:55.376Z,11.25
2019-03-23T02:43:26.091Z,11.26
2019-03-23T02:45:57.628Z,11.11
2019-03-23T02:48:28.383Z,10.98
2019-03-23T02:50:59.074Z,11.20
2019-03-23T02:53:29.771Z,11.23
2019-03-23T02:56:00.505Z,11.10
2019-03-23T02:58:31.313Z,11.03
2019-03-23T03:01:02.295Z,10.99
2019-03-23T03:03:33.394Z,11.03
2019-03-23T03:06:04.387Z,11.04
2019-03-23T03:08:35.176Z,11.03
2019-03-23T03:11:06.125Z,10.98
2019-03-23T03:13:36.923Z,10.92
2019-03-23T03:16:07.697Z,10.95
2019-03-23T03:18:38.458Z,10.99
2019-03-23T03:21:09.287Z,10.66
2019-03-23T03:23:40.016Z,10.94
2019-03-23T03:26:10.914Z,11.12
2019-03-23T03:28:42.046Z,11.07
2019-03-23T03:31:12.731Z,11.01
2019-03-23T03:33:43.443Z,11.02
2019-03-23T03:36:14.200Z,10.92
2019-03-23T03:38:45.346Z,10.88
2019-03-23T03:41:16.116Z,10.99
2019-03-23T03:43:47.098Z,10.87
2019-03-23T03:46:17.802Z,10.86
2019-03-23T03:48:48.471Z,10.94
2019-03-23T03:51:19.235Z,10.83
2019-03-23T03:53:50.054Z,10.79
2019-03-23T03:56:20.741Z,10.24
2019-03-23T03:58:51.518Z,10.75
2019-03-23T04:01:22.190Z,10.87
2019-03-23T04:03:53.380Z,10.61
2019-03-23T04:06:24.101Z,10.78
2019-03-23T04:08:55.274Z,10.80
2019-03-23T04:11:26.023Z,10.88
2019-03-23T04:13:57.828Z,10.77
2019-03-23T04:16:29.341Z,10.88
2019-03-23T04:19:00.028Z,10.88
2019-03-23T04:21:30.826Z,10.80
2019-03-23T04:24:01.494Z,10.76
2019-03-23T04:26:32.447Z,10.85
2019-03-23T04:29:03.224Z,10.87
2019-03-23T04:31:34.199Z,9.54
2019-03-23T04:34:04.953Z,10.01
2019-03-23T04:36:35.640Z,10.47
2019-03-23T04:39:07.657Z,9.91
2019-03-23T04:41:38.371Z,9.75
2019-03-23T04:44:09.292Z,8.82
2019-03-23T04:46:39.952Z,9.93
2019-03-23T04:49:10.701Z,10.49
2019-03-23T04:51:41.599Z,10.10
2019-03-23T04:54:12.302Z,9.89
2019-03-23T04:56:43.415Z,10.09
2019-03-23T04:59:14.099Z,9.25
2019-03-23T05:01:44.973Z,9.05
2019-03-23T05:04:15.639Z,9.35
2019-03-23T05:06:46.800Z,10.19
2019-03-23T05:09:17.567Z,10.43
2019-03-23T05:11:48.254Z,10.51
2019-03-23T05:14:19.243Z,10.44
2019-03-23T05:16:50.212Z,10.42
2019-03-23T05:19:20.998Z,10.40
2019-03-23T05:21:51.684Z,10.57
2019-03-23T05:24:22.791Z,10.48
2019-03-23T05:26:53.488Z,10.48
2019-03-23T05:29:24.432Z,10.50
2019-03-23T05:31:55.592Z,10.55
2019-03-23T05:34:26.251Z,10.34
2019-03-23T05:36:56.965Z,10.59
2019-03-23T05:39:27.646Z,10.55
2019-03-23T05:41:58.369Z,10.73
2019-03-23T05:44:29.528Z,10.66
2019-03-23T05:47:00.261Z,10.75
2019-03-23T05:49:30.957Z,10.94
2019-03-23T05:52:01.662Z,10.83
2019-03-23T05:54:32.330Z,10.98
2019-03-23T05:57:03.047Z,10.98
2019-03-23T05:59:33.855Z,10.83
2019-03-23T06:02:04.638Z,10.59
2019-03-23T06:04:35.531Z,11.12
2019-03-23T06:07:06.220Z,11.15
2019-03-23T06:09:37.366Z,11.34
2019-03-23T06:12:08.536Z,11.20
2019-03-23T06:14:39.216Z,11.37
2019-03-23T06:17:09.965Z,11.27
2019-03-23T06:19:40.656Z,11.26
2019-03-23T06:22:11.735Z,11.26
2019-03-23T06:24:42.502Z,10.57
2019-03-23T06:27:13.196Z,11.26
2019-03-23T06:29:43.918Z,11.46
2019-03-23T06:32:14.627Z,11.53
2019-03-23T06:34:45.331Z,11.76
2019-03-23T06:37:16.019Z,11.60
2019-03-23T06:39:46.770Z,11.23
2019-03-23T06:42:17.714Z,11.77
2019-03-23T06:44:48.628Z,11.86
2019-03-23T06:47:19.576Z,11.89
2019-03-23T06:49:50.731Z,11.43
2019-03-23T06:52:21.425Z,12.04
2019-03-23T06:54:52.379Z,12.16
2019-03-23T06:57:23.274Z,12.17
2019-03-23T06:59:54.182Z,12.29
2019-03-23T07:02:25.157Z,12.39
2019-03-23T07:04:55.841Z,12.51
2019-03-23T07:07:26.612Z,12.53
2019-03-23T07:09:57.753Z,12.62
2019-03-23T07:12:28.449Z,12.70
2019-03-23T07:14:59.135Z,12.73
2019-03-23T07:17:29.815Z,12.79
2019-03-23T07:20:00.559Z,12.88
2019-03-23T07:22:31.749Z,12.90
2019-03-23T07:25:02.459Z,12.94
2019-03-23T07:27:33.189Z,12.98
2019-03-23T07:30:05.074Z,13.09
2019-03-23T07:32:35.850Z,13.18
2019-03-23T07:35:09.270Z,13.25
2019-03-23T07:37:40.136Z,13.24
2019-03-23T07:40:11.809Z,13.32
2019-03-23T07:42:42.706Z,13.38
2019-03-23T07:45:13.857Z,13.45
2019-03-23T07:47:44.624Z,13.46
2019-03-23T07:50:15.603Z,13.38
2019-03-23T07:52:46.643Z,13.45
2019-03-23T07:55:17.828Z,13.31
2019-03-23T07:57:48.713Z,12.62
2019-03-23T08:00:20.609Z,12.85
2019-03-23T08:02:51.630Z,12.52
2019-03-23T08:05:22.963Z,12.52
2019-03-23T08:07:53.785Z,12.89
2019-03-23T08:10:32.922Z,13.26
2019-03-23T08:13:04.425Z,13.51
2019-03-23T08:15:35.897Z,13.63
2019-03-23T08:18:06.697Z,13.65
2019-03-23T08:20:37.407Z,13.37
2019-03-23T08:23:08.167Z,13.59
2019-03-23T08:25:38.954Z,13.17
2019-03-23T08:28:09.672Z,13.54
2019-03-23T08:30:40.433Z,13.23
2019-03-23T08:33:11.255Z,13.08
2019-03-23T08:35:42.237Z,13.34
2019-03-23T08:38:13.045Z,12.93
2019-03-23T08:40:43.802Z,14.04
2019-03-23T08:43:14.597Z,13.28
2019-03-23T08:45:45.502Z,13.65
2019-03-23T08:48:16.525Z,13.39
2019-03-23T08:50:47.300Z,13.29
2019-03-23T08:53:18.100Z,13.30
2019-03-23T08:55:48.870Z,13.35
2019-03-23T08:58:28.215Z,13.65
2019-03-23T09:01:00.457Z,13.90
2019-03-23T09:03:31.216Z,13.96
2019-03-23T09:06:01.972Z,13.56
2019-03-23T09:08:32.700Z,14.01
2019-03-23T09:11:03.486Z,13.94
2019-03-23T09:13:40.584Z,14.20
2019-03-23T09:16:07.010Z,14.43
2019-03-23T09:18:38.234Z,14.96
2019-03-23T09:21:08.947Z,14.63
2019-03-23T09:23:39.645Z,14.81
2019-03-23T09:26:10.313Z,15.08
2019-03-23T09:28:41.456Z,15.36
2019-03-23T09:31:12.157Z,15.21
2019-03-23T09:33:42.920Z,15.19
2019-03-23T09:36:14.102Z,15.22
2019-03-23T09:38:45.106Z,14.78
2019-03-23T09:41:16.111Z,14.86
2019-03-23T09:43:46.801Z,15.18
2019-03-23T09:46:17.473Z,15.16
2019-03-23T09:48:48.138Z,15.24
2019-03-23T09:51:18.815Z,14.68
2019-03-23T09:53:49.755Z,14.48
2019-03-23T09:56:20.682Z,15.32
2019-03-23T09:58:51.648Z,15.66
2019-03-23T10:01:25.541Z,15.56
2019-03-23T10:03:56.451Z,15.46
2019-03-23T10:06:27.382Z,14.82
2019-03-23T10:08:58.225Z,15.69
2019-03-23T10:11:29.184Z,15.74
2019-03-23T10:13:59.932Z,15.56
2019-03-23T10:16:33.780Z,15.19
2019-03-23T10:19:04.518Z,15.03
2019-03-23T10:21:35.236Z,15.79
2019-03-23T10:24:05.922Z,15.71
2019-03-23T10:26:36.931Z,15.44
2019-03-23T10:29:07.617Z,15.31
2019-03-23T10:31:38.375Z,15.99
2019-03-23T10:34:09.175Z,15.48
2019-03-23T10:36:39.878Z,15.71
2019-03-23T10:39:10.605Z,16.33
2019-03-23T10:41:41.387Z,16.09
2019-03-23T10:44:12.219Z,16.27
2019-03-23T10:46:44.828Z,16.04
2019-03-23T10:49:16.501Z,15.26
2019-03-23T10:51:51.678Z,15.44
2019-03-23T10:54:30.785Z,15.37
2019-03-23T10:57:02.075Z,15.48
2019-03-23T10:59:34.201Z,15.27
2019-03-23T11:02:06.423Z,15.63
2019-03-23T11:05:05.915Z,15.73
2019-03-23T11:07:37.367Z,15.76
2019-03-23T11:10:12.916Z,15.47
2019-03-23T11:12:45.309Z,15.53
2019-03-23T11:15:19.924Z,15.22
2019-03-23T11:17:52.811Z,15.66
2019-03-23T11:20:24.413Z,16.07
2019-03-23T11:22:55.293Z,16.09
2019-03-23T11:25:29.886Z,15.40
2019-03-23T11:28:00.705Z,16.16
2019-03-23T11:30:35.355Z,15.77
2019-03-23T11:33:06.894Z,14.93
2019-03-23T11:35:37.711Z,15.05
2019-03-23T11:38:09.389Z,15.08
2019-03-23T11:40:52.774Z,14.72
2019-03-23T11:43:15.616Z,14.86
2019-03-23T11:45:48.570Z,14.65
2019-03-23T11:48:19.441Z,14.39
2019-03-23T11:50:50.205Z,13.88
2019-03-23T11:53:29.878Z,13.83
2019-03-23T11:56:12.272Z,13.45
2019-03-23T11:58:43.686Z,13.66
2019-03-23T12:01:16.711Z,13.28
2019-03-23T12:03:47.415Z,13.27
2019-03-23T12:06:19.615Z,13.38
2019-03-23T12:08:50.394Z,13.00
2019-03-23T12:11:21.407Z,12.76
2019-03-23T12:13:52.222Z,13.22
2019-03-23T12:16:23.160Z,12.85
2019-03-23T12:18:53.908Z,12.67
2019-03-23T12:21:25.007Z,13.09
2019-03-23T12:23:55.828Z,12.95
2019-03-23T12:26:27.481Z,12.78
2019-03-23T12:28:58.841Z,12.71
2019-03-23T12:31:29.532Z,12.48
2019-03-23T12:34:00.515Z,12.94
2019-03-23T12:36:31.342Z,13.12
2019-03-23T12:39:02.068Z,12.79
2019-03-23T12:41:32.761Z,12.39
2019-03-23T12:44:03.631Z,12.24
2019-03-23T12:46:34.744Z,12.33
2019-03-23T12:49:05.562Z,12.62
2019-03-23T12:51:36.245Z,12.53
2019-03-23T12:54:06.986Z,13.15
2019-03-23T12:56:37.944Z,13.31
2019-03-23T12:59:08.632Z,13.11
2019-03-23T13:01:40.180Z,12.67
2019-03-23T13:04:11.117Z,12.28
2019-03-23T13:06:41.954Z,12.32
2019-03-23T13:09:12.655Z,12.28
2019-03-23T13:11:43.828Z,12.19
2019-03-23T13:14:17.820Z,12.37
2019-03-23T13:16:48.780Z,12.29
2019-03-23T13:19:19.598Z,12.72
2019-03-23T13:21:50.572Z,12.96
2019-03-23T13:24:22.712Z,13.30
2019-03-23T13:26:53.938Z,13.61
2019-03-23T13:29:24.966Z,13.64
2019-03-23T13:31:56.251Z,13.27
2019-03-23T13:34:28.918Z,12.86
2019-03-23T13:36:59.997Z,13.17
2019-03-23T13:39:32.573Z,13.19
2019-03-23T13:42:03.520Z,13.40
2019-03-23T13:44:37.863Z,13.63
2019-03-23T13:47:08.972Z,13.65
2019-03-23T13:49:40.091Z,13.63
2019-03-23T13:52:10.873Z,13.23
2019-03-23T13:54:41.752Z,13.60
2019-03-23T13:57:15.993Z,13.45
2019-03-23T13:59:46.969Z,13.18
2019-03-23T14:02:22.692Z,13.26
2019-03-23T14:04:56.530Z,13.46
2019-03-23T14:07:27.700Z,12.81
2019-03-23T14:10:05.986Z,12.10
2019-03-23T14:12:37.223Z,12.49
2019-03-23T14:15:13.470Z,12.76
2019-03-23T14:17:47.443Z,12.82
2019-03-23T14:20:18.303Z,12.72
2019-03-23T14:22:49.825Z,12.86
2019-03-23T14:25:23.957Z,12.73
2019-03-23T14:27:55.328Z,12.58
2019-03-23T14:30:26.973Z,12.74
2019-03-23T14:32:58.269Z,12.73
2019-03-23T14:35:29.149Z,12.48
2019-03-23T14:38:00.001Z,12.54
2019-03-23T14:40:32.429Z,13.15
2019-03-23T14:43:03.373Z,13.60
2019-03-23T14:45:36.925Z,13.56
2019-03-23T14:48:10.592Z,13.09
2019-03-23T14:50:42.709Z,12.85
2019-03-23T14:53:16.762Z,12.89
2019-03-23T14:55:48.426Z,13.40
2019-03-23T14:58:19.715Z,13.07
2019-03-23T15:04:13.563Z,13.22
2019-03-23T15:07:08.898Z,13.08
2019-03-23T15:09:31.654Z,13.23
2019-03-23T15:12:14.754Z,13.36
2019-03-23T15:14:40.095Z,13.13
2019-03-23T15:17:13.873Z,12.76
2019-03-23T15:19:45.448Z,12.81
2019-03-23T15:22:19.285Z,13.40
2019-03-23T15:25:11.421Z,13.59
2019-03-23T15:28:23.066Z,13.64
2019-03-23T15:30:58.517Z,13.86
2019-03-23T15:33:48.433Z,13.56
2019-03-23T15:36:30.786Z,13.54
2019-03-23T15:39:14.090Z,13.23
2019-03-23T15:42:05.121Z,13.57
2019-03-23T15:44:45.638Z,13.54
2019-03-23T15:47:51.417Z,13.95
2019-03-23T15:52:15.902Z,13.85
2019-03-23T15:53:33.023Z,13.54
2019-03-23T15:56:08.804Z,13.63
2019-03-23T16:02:01.890Z,13.85
2019-03-23T16:04:34.641Z,13.73
2019-03-23T16:07:12.871Z,13.62
2019-03-23T16:09:49.019Z,13.53
2019-03-23T16:12:19.751Z,13.30
2019-03-23T16:14:55.100Z,13.83
2019-03-23T16:17:25.829Z,14.06
2019-03-23T16:20:15.157Z,14.01
2019-03-23T16:22:46.558Z,13.92
2019-03-23T16:25:18.924Z,14.29
2019-03-23T16:27:58.962Z,14.10
2019-03-23T16:30:34.069Z,13.99
2019-03-23T16:33:05.010Z,13.79
2019-03-23T16:35:35.932Z,14.09
2019-03-23T16:38:06.877Z,14.12
2019-03-23T16:40:40.167Z,14.05
2019-03-23T16:43:11.199Z,13.54
2019-03-23T16:45:42.265Z,13.41
2019-03-23T16:48:13.633Z,13.35
2019-03-23T16:50:44.536Z,13.48
2019-03-23T16:53:15.690Z,13.52
2019-03-23T16:55:46.939Z,13.81
2019-03-23T16:58:18.380Z,13.77
2019-03-23T17:00:49.523Z,13.93
2019-03-23T17:03:27.711Z,14.08
2019-03-23T17:05:59.392Z,13.49
2019-03-23T17:08:30.502Z,13.48
2019-03-23T17:11:04.793Z,13.35
2019-03-23T17:13:36.404Z,13.81
2019-03-23T17:16:07.225Z,13.78
2019-03-23T17:18:37.923Z,13.43
2019-03-23T17:21:09.163Z,13.71
2019-03-23T17:23:44.882Z,13.88
2019-03-23T17:26:16.284Z,13.56
2019-03-23T17:28:47.417Z,13.93
2019-03-23T17:31:21.459Z,13.90
2019-03-23T17:36:59.975Z,13.27
2019-03-23T17:39:34.912Z,13.67
2019-03-23T17:42:07.788Z,13.53
2019-03-23T17:44:42.655Z,13.38
2019-03-23T17:47:23.084Z,13.88
2019-03-23T17:49:54.476Z,13.55
2019-03-23T17:52:47.344Z,13.85
2019-03-23T17:55:18.245Z,13.49
2019-03-23T17:57:49.307Z,14.08
2019-03-23T18:00:21.637Z,13.83
2019-03-23T18:02:52.940Z,13.98
2019-03-23T18:05:27.368Z,13.84
2019-03-23T18:07:58.484Z,13.92
2019-03-23T18:10:29.414Z,13.98
2019-03-23T18:13:00.649Z,14.00
2019-03-23T18:15:31.474Z,13.96
2019-03-23T18:18:11.132Z,13.73
2019-03-23T18:20:42.027Z,13.78
2019-03-23T18:23:15.691Z,13.35
2019-03-23T18:25:46.296Z,13.28
2019-03-23T18:28:18.592Z,13.13
2019-03-23T18:30:49.893Z,13.03
2019-03-23T18:33:20.952Z,12.95
2019-03-23T18:35:59.820Z,13.23
2019-03-23T18:38:30.998Z,13.18
2019-03-23T18:41:02.882Z,13.07
2019-03-23T18:43:34.381Z,13.44
2019-03-23T18:46:08.579Z,13.19
2019-03-23T18:48:40.535Z,13.16
2019-03-23T18:51:11.409Z,12.84
2019-03-23T18:53:42.427Z,12.92
2019-03-23T18:56:13.933Z,12.72
2019-03-23T18:58:44.876Z,13.14
2019-03-23T19:01:23.694Z,12.80
2019-03-23T19:03:54.590Z,12.68
2019-03-23T19:06:26.421Z,12.97
2019-03-23T19:08:57.569Z,12.96
2019-03-23T19:11:28.387Z,13.17
2019-03-23T19:13:59.281Z,13.08
2019-03-23T19:16:30.225Z,13.28
2019-03-23T19:19:00.944Z,13.25
2019-03-23T19:21:31.843Z,12.60
2019-03-23T19:24:02.710Z,12.63
2019-03-23T19:26:33.706Z,13.35
2019-03-23T19:29:04.612Z,13.58
2019-03-23T19:31:35.525Z,12.92
2019-03-23T19:34:09.931Z,13.18
2019-03-23T19:36:41.631Z,13.13
2019-03-23T19:39:12.555Z,13.36
2019-03-23T19:41:43.512Z,13.67
2019-03-23T19:44:14.809Z,13.43
2019-03-23T19:46:45.557Z,13.37
2019-03-23T19:49:16.479Z,13.22
2019-03-23T19:51:47.623Z,13.37
2019-03-23T19:54:18.651Z,13.32
2019-03-23T19:56:49.398Z,13.28
2019-03-23T19:59:20.630Z,13.50
2019-03-23T20:01:52.565Z,13.73
2019-03-23T20:04:23.839Z,13.36
2019-03-23T20:06:54.578Z,13.33
2019-03-23T20:09:25.477Z,13.30
2019-03-23T20:11:58.062Z,13.16
2019-03-23T20:14:29.043Z,12.56
2019-03-23T20:16:59.967Z,12.56
2019-03-23T20:19:30.841Z,13.00
2019-03-23T20:22:01.768Z,13.01
2019-03-23T20:24:39.286Z,13.02
2019-03-23T20:27:10.255Z,12.51
2019-03-23T20:29:43.287Z,12.63
2019-03-23T20:32:14.013Z,12.37
2019-03-23T20:34:45.340Z,12.21
2019-03-23T20:37:16.592Z,12.14
2019-03-23T20:39:47.448Z,12.16
2019-03-23T20:42:18.229Z,12.11
2019-03-23T20:44:49.001Z,12.11
2019-03-23T20:47:20.045Z,12.27
2019-03-23T20:49:51.067Z,11.95
2019-03-23T20:52:22.734Z,12.14
2019-03-23T20:54:53.928Z,11.84
2019-03-23T20:57:24.726Z,11.76
2019-03-23T20:59:55.715Z,12.00
2019-03-23T21:02:26.403Z,12.79
2019-03-23T21:04:57.560Z,12.69
2019-03-23T21:07:28.259Z,12.65
2019-03-23T21:09:59.018Z,12.38
2019-03-23T21:12:29.730Z,12.06
2019-03-23T21:15:00.714Z,12.22
2019-03-23T21:17:31.554Z,12.26
2019-03-23T21:20:02.257Z,12.86
2019-03-23T21:22:33.319Z,12.78
2019-03-23T21:25:04.594Z,12.67
2019-03-23T21:27:35.302Z,13.21
2019-03-23T21:30:08.053Z,12.70
2019-03-23T21:32:38.908Z,12.62
2019-03-23T21:35:09.911Z,11.99
2019-03-23T21:37:41.129Z,12.21
2019-03-23T21:40:12.561Z,12.04
2019-03-23T21:42:43.290Z,12.16
2019-03-23T21:45:14.499Z,11.91
2019-03-23T21:47:45.224Z,11.78
2019-03-23T21:50:16.127Z,12.04
2019-03-23T21:52:47.057Z,11.44
2019-03-23T21:55:17.796Z,11.53
2019-03-23T21:57:48.771Z,11.93
2019-03-23T22:00:34.876Z,11.70
2019-03-23T22:03:05.972Z,11.81
2019-03-23T22:05:37.010Z,11.80
2019-03-23T22:08:07.743Z,11.54
2019-03-23T22:10:38.562Z,11.94
2019-03-23T22:13:09.268Z,12.13
2019-03-23T22:15:40.049Z,12.25
2019-03-23T22:18:10.801Z,12.47
2019-03-23T22:20:41.539Z,12.38
2019-03-23T22:23:12.656Z,12.26
2019-03-23T22:25:43.306Z,12.04
2019-03-23T22:28:14.052Z,12.32
2019-03-23T22:30:44.768Z,11.92
2019-03-23T22:33:15.795Z,12.07
2019-03-23T22:35:46.531Z,12.42
2019-03-23T22:38:17.264Z,12.45
2019-03-23T22:40:48.361Z,12.09
2019-03-23T22:43:19.231Z,11.98
2019-03-23T22:45:49.959Z,11.92
2019-03-23T22:48:20.804Z,12.03
2019-03-23T22:50:51.525Z,12.00
2019-03-23T22:53:22.227Z,12.30
2019-03-23T22:55:53.200Z,12.37
2019-03-23T22:58:24.161Z,12.22
2019-03-23T23:00:56.220Z,12.25
2019-03-23T23:03:27.007Z,12.33
2019-03-23T23:05:58.040Z,11.80
2019-03-23T23:08:31.905Z,11.66
2019-03-23T23:11:02.570Z,11.44
2019-03-23T23:13:33.648Z,11.26
2019-03-23T23:16:04.761Z,11.86
2019-03-23T23:18:35.478Z,11.84
2019-03-23T23:21:06.488Z,11.77
2019-03-23T23:23:37.114Z,11.69
2019-03-23T23:26:07.828Z,11.39
2019-03-23T23:28:38.937Z,11.08
2019-03-23T23:31:09.816Z,11.69
2019-03-23T23:33:40.939Z,11.60
2019-03-23T23:36:11.952Z,10.61
2019-03-23T23:38:42.913Z,11.19
2019-03-23T23:41:14.039Z,11.40
2019-03-23T23:43:45.142Z,11.15
2019-03-23T23:46:15.948Z,11.55
2019-03-23T23:48:51.137Z,11.34
2019-03-23T23:51:19.507Z,11.57
2019-03-23T23:53:50.671Z,11.10
2019-03-23T23:56:22.324Z,11.01
2019-03-23T23:58:53.063Z,11.18
